Time;durP1;ratioP1;P1;durP2;ratioP2;P2;SDS_P1;SDS_P2;PMS_P1;PMS_P2;Temp;Humidity;BMP_temperature;BMP_pressure;BME280_temperature;BME280_humidity;BME280_pressure;Samples;Min_cycle;Max_cycle;Signal;HPM_P1;HPM_P2
2021/11/15 00:01:43;;;;;;;142.40;98.45;;;8.90;99.90;;;;;;5033007;28;20039;-48
2021/11/15 00:04:13;;;;;;;151.60;99.05;;;8.90;99.90;;;;;;5032950;28;20052;-49
2021/11/15 00:06:38;;;;;;;150.73;101.32;;;8.90;99.90;;;;;;4994017;28;20120;-49
2021/11/15 00:09:04;;;;;;;148.48;98.60;;;8.90;99.90;;;;;;4979673;28;20489;-50
2021/11/15 00:11:30;;;;;;;159.93;99.82;;;9.00;99.90;;;;;;5034456;28;20041;-50
2021/11/15 00:13:56;;;;;;;159.13;102.82;;;8.90;99.90;;;;;;4998340;28;20037;-48
2021/11/15 00:16:22;;;;;;;149.15;99.38;;;9.00;99.90;;;;;;5033591;28;20037;-48
2021/11/15 00:18:48;;;;;;;153.10;101.60;;;8.90;99.90;;;;;;5033875;28;20031;-48
2021/11/15 00:21:14;;;;;;;158.93;102.72;;;8.90;99.90;;;;;;5034423;28;20107;-50
2021/11/15 00:23:40;;;;;;;154.52;101.55;;;9.00;99.90;;;;;;5032417;28;20392;-48
2021/11/15 00:26:06;;;;;;;153.68;101.03;;;8.80;99.90;;;;;;5034056;28;20029;-48
2021/11/15 00:28:32;;;;;;;151.50;100.75;;;8.80;99.90;;;;;;5034016;28;20028;-49
2021/11/15 00:30:58;;;;;;;165.85;106.63;;;8.70;99.90;;;;;;5032990;28;20072;-50
2021/11/15 00:33:24;;;;;;;166.55;107.40;;;8.50;99.90;;;;;;5033984;28;20083;-50
2021/11/15 00:35:50;;;;;;;158.48;102.32;;;8.60;99.90;;;;;;5033870;28;20033;-50
2021/11/15 00:38:16;;;;;;;181.88;110.32;;;8.70;99.90;;;;;;4979966;28;20084;-50
2021/11/15 00:40:41;;;;;;;165.82;105.90;;;8.50;99.90;;;;;;5032181;28;20512;-48
2021/11/15 00:43:07;;;;;;;234.73;115.57;;;8.60;99.90;;;;;;5032816;28;20064;-48
2021/11/15 00:45:34;;;;;;;227.55;107.97;;;8.70;99.90;;;;;;4998710;28;20040;-48
2021/11/15 00:48:00;;;;;;;260.75;110.45;;;8.80;99.90;;;;;;5034413;28;20033;-48
2021/11/15 00:50:26;;;;;;;632.53;136.38;;;8.90;99.90;;;;;;4948789;28;20040;-50
2021/11/15 00:52:52;;;;;;;522.42;121.15;;;8.90;99.90;;;;;;5033399;28;20487;-47
2021/11/15 00:55:19;;;;;;;453.70;117.18;;;8.80;99.90;;;;;;4998271;28;20045;-49
2021/11/15 00:57:46;;;;;;;325.48;108.78;;;8.70;99.90;;;;;;4995659;28;20143;-48
2021/11/15 01:00:20;;;;;;;398.98;105.78;;;8.60;99.90;;;;;;5034618;28;20041;-48
2021/11/15 01:02:47;;;;;;;701.35;118.15;;;8.70;99.90;;;;;;5033274;28;20026;-50
2021/11/15 01:05:14;;;;;;;430.00;99.68;;;8.80;99.90;;;;;;5032984;28;20036;-51
2021/11/15 01:07:40;;;;;;;541.75;117.22;;;8.90;99.90;;;;;;4996383;28;20037;-49
2021/11/15 01:10:08;;;;;;;405.95;106.25;;;8.90;99.90;;;;;;5033405;28;20037;-50
2021/11/15 01:12:35;;;;;;;256.58;98.07;;;8.70;99.90;;;;;;5033909;28;20035;-48
2021/11/15 01:15:01;;;;;;;641.10;105.05;;;8.40;99.90;;;;;;5032983;28;20053;-49
2021/11/15 01:17:26;;;;;;;388.08;106.63;;;8.50;99.90;;;;;;4994629;28;20044;-50
2021/11/15 01:19:52;;;;;;;547.42;117.28;;;8.50;99.90;;;;;;5031320;28;20049;-50
2021/11/15 01:22:18;;;;;;;539.53;113.53;;;8.40;99.90;;;;;;4949603;28;20457;-50
2021/11/15 01:24:44;;;;;;;316.73;99.63;;;8.40;99.90;;;;;;5032944;28;20071;-48
2021/11/15 01:27:10;;;;;;;359.52;99.85;;;8.60;99.90;;;;;;5033722;28;20033;-50
2021/11/15 01:29:36;;;;;;;620.20;111.35;;;8.60;99.90;;;;;;5032040;28;20088;-49
2021/11/15 01:32:02;;;;;;;370.35;96.70;;;8.60;99.90;;;;;;5032876;28;20025;-48
2021/11/15 01:34:29;;;;;;;398.88;108.55;;;8.70;99.90;;;;;;4983177;28;20465;-48
2021/11/15 01:36:56;;;;;;;271.55;98.22;;;8.40;99.90;;;;;;5033245;28;20091;-50
2021/11/15 01:39:23;;;;;;;379.95;99.70;;;8.40;99.90;;;;;;5034558;28;20033;-48
2021/11/15 01:41:50;;;;;;;295.95;98.50;;;8.20;99.90;;;;;;4990876;28;20050;-49
2021/11/15 01:44:15;;;;;;;253.80;98.53;;;7.90;99.90;;;;;;5032945;28;20069;-50
2021/11/15 01:46:41;;;;;;;245.35;98.57;;;7.70;99.90;;;;;;5033343;28;20063;-50
2021/11/15 01:49:07;;;;;;;348.02;103.22;;;7.80;99.90;;;;;;5037743;28;20021;-49
2021/11/15 01:51:33;;;;;;;249.35;98.18;;;7.90;99.90;;;;;;4997807;28;20042;-49
2021/11/15 01:53:59;;;;;;;346.90;102.30;;;8.10;99.90;;;;;;4999824;28;20043;-50
2021/11/15 01:56:25;;;;;;;394.38;103.55;;;8.20;99.90;;;;;;5002568;28;20033;-47
2021/11/15 01:58:51;;;;;;;454.40;100.20;;;8.40;99.90;;;;;;5036426;28;20033;-48
2021/11/15 02:01:16;;;;;;;477.55;102.90;;;8.60;99.90;;;;;;5037295;28;20029;-50
2021/11/15 02:03:42;;;;;;;476.92;104.30;;;8.70;99.90;;;;;;5035607;28;20044;-49
2021/11/15 02:06:10;;;;;;;703.70;112.20;;;8.80;99.90;;;;;;5001957;28;20133;-47
2021/11/15 02:08:37;;;;;;;516.70;105.85;;;8.80;99.90;;;;;;5033749;28;20133;-48
2021/11/15 02:11:04;;;;;;;655.67;110.55;;;8.90;99.90;;;;;;5036163;28;20033;-48
2021/11/15 02:13:30;;;;;;;409.90;89.30;;;8.80;99.90;;;;;;5035235;28;20041;-47
2021/11/15 02:15:58;;;;;;;546.03;98.88;;;8.80;99.90;;;;;;5035619;28;20045;-48
2021/11/15 02:18:24;;;;;;;433.08;87.82;;;8.70;99.90;;;;;;5036413;28;20064;-48
2021/11/15 02:20:58;;;;;;;474.02;91.32;;;8.50;99.90;;;;;;4959387;28;20085;-48
2021/11/15 02:23:27;;;;;;;555.67;95.97;;;8.40;99.90;;;;;;4997671;28;20097;-47
2021/11/15 02:25:55;;;;;;;707.88;111.28;;;8.40;99.90;;;;;;4982783;28;20561;-47
2021/11/15 02:28:41;;;;;;;664.22;106.13;;;8.20;99.90;;;;;;5031741;28;20022;-48
2021/11/15 02:31:09;;;;;;;563.03;96.88;;;8.20;99.90;;;;;;4983588;28;20524;-48
2021/11/15 02:33:35;;;;;;;628.78;98.28;;;8.00;99.90;;;;;;4971355;28;20089;-48
2021/11/15 02:36:03;;;;;;;575.78;94.50;;;8.00;99.90;;;;;;4970798;28;20051;-48
2021/11/15 02:38:29;;;;;;;561.13;92.90;;;8.10;99.90;;;;;;4969162;28;20047;-47
2021/11/15 02:40:55;;;;;;;522.45;88.15;;;8.10;99.90;;;;;;4972165;28;20039;-48
2021/11/15 02:43:22;;;;;;;219.18;59.58;;;8.20;99.90;;;;;;4941777;28;20062;-48
2021/11/15 02:45:48;;;;;;;485.98;86.82;;;7.90;99.90;;;;;;4939148;28;20114;-48
2021/11/15 02:48:17;;;;;;;643.72;97.97;;;8.00;99.90;;;;;;4957742;28;20170;-48
2021/11/15 02:50:43;;;;;;;391.45;72.53;;;8.00;99.90;;;;;;4972428;28;20066;-48
2021/11/15 02:53:09;;;;;;;404.80;75.05;;;8.00;99.90;;;;;;4970375;28;20133;-47
2021/11/15 02:55:36;;;;;;;455.13;79.63;;;8.00;99.90;;;;;;4955111;28;20047;-48
2021/11/15 02:58:06;;;;;;;384.45;73.40;;;8.00;99.90;;;;;;4970837;28;20084;-47
2021/11/15 03:00:43;;;;;;;548.20;86.05;;;8.10;99.90;;;;;;4970372;28;20035;-47
2021/11/15 03:03:10;;;;;;;451.98;81.15;;;8.00;99.90;;;;;;4970614;28;20383;-48
2021/11/15 03:05:40;;;;;;;344.52;70.68;;;8.00;99.90;;;;;;5030161;28;20374;-47
2021/11/15 03:08:07;;;;;;;430.55;72.07;;;8.10;99.90;;;;;;5031751;28;20583;-48
2021/11/15 03:10:35;;;;;;;513.20;82.72;;;8.10;99.90;;;;;;5030991;28;20029;-47
2021/11/15 03:13:02;;;;;;;513.08;76.75;;;8.20;99.90;;;;;;5031363;28;20069;-47
2021/11/15 03:15:34;;;;;;;420.38;74.25;;;8.30;99.90;;;;;;5031371;28;20037;-48
2021/11/15 03:18:10;;;;;;;547.92;86.70;;;8.40;99.90;;;;;;5030898;28;20041;-47
2021/11/15 03:20:39;;;;;;;416.67;76.53;;;8.30;99.90;;;;;;4985642;28;20068;-48
2021/11/15 03:23:10;;;;;;;536.45;85.93;;;8.40;99.90;;;;;;5028698;28;20029;-48
2021/11/15 03:25:36;;;;;;;541.42;84.07;;;8.50;99.90;;;;;;5032109;28;20121;-48
2021/11/15 03:28:02;;;;;;;473.75;75.38;;;8.60;99.90;;;;;;5031914;28;20092;-48
2021/11/15 03:30:28;;;;;;;479.77;78.72;;;8.50;99.90;;;;;;5032180;28;20057;-47
2021/11/15 03:32:55;;;;;;;476.40;82.88;;;8.50;99.90;;;;;;5031539;28;20025;-47
2021/11/15 03:35:22;;;;;;;473.30;82.03;;;8.50;99.90;;;;;;5031361;28;20421;-48
2021/11/15 03:37:47;;;;;;;406.95;70.90;;;8.50;99.90;;;;;;5031981;28;20358;-48
2021/11/15 03:40:20;;;;;;;466.48;69.65;;;8.40;99.90;;;;;;5013165;28;20037;-48
2021/11/15 03:42:47;;;;;;;364.13;65.85;;;8.40;99.90;;;;;;5031762;28;20033;-48
2021/11/15 03:45:13;;;;;;;330.40;56.17;;;8.40;99.90;;;;;;5028290;28;20033;-47
2021/11/15 03:47:40;;;;;;;361.35;63.97;;;8.30;99.90;;;;;;5013976;28;20378;-48
2021/11/15 03:50:08;;;;;;;398.20;71.78;;;8.30;99.90;;;;;;5031683;28;20083;-48
2021/11/15 03:52:35;;;;;;;294.30;66.13;;;8.30;99.90;;;;;;5031310;28;20450;-47
2021/11/15 03:55:00;;;;;;;396.42;72.70;;;8.30;99.90;;;;;;5031099;28;20042;-48
2021/11/15 03:57:26;;;;;;;276.25;63.78;;;8.40;99.90;;;;;;5031413;28;20037;-48
2021/11/15 03:59:52;;;;;;;431.20;71.20;;;8.30;99.90;;;;;;5032353;28;20480;-49
2021/11/15 04:02:21;;;;;;;286.27;62.15;;;8.30;99.90;;;;;;4980801;28;20393;-48
2021/11/15 04:04:53;;;;;;;370.92;66.15;;;8.30;99.90;;;;;;5031256;28;20040;-48
2021/11/15 04:07:31;;;;;;;349.80;66.47;;;8.30;99.90;;;;;;5030262;28;20044;-48
2021/11/15 04:09:59;;;;;;;239.57;57.30;;;8.30;99.90;;;;;;5030531;28;20068;-48
2021/11/15 04:12:27;;;;;;;336.23;65.28;;;8.40;99.90;;;;;;5031819;28;20033;-47
2021/11/15 04:14:54;;;;;;;262.90;61.00;;;8.40;99.90;;;;;;4996803;28;20049;-48
2021/11/15 04:17:20;;;;;;;300.38;62.65;;;8.30;99.90;;;;;;5030817;28;20033;-48
2021/11/15 04:19:49;;;;;;;203.10;56.20;;;8.30;99.90;;;;;;5031995;28;20053;-48
2021/11/15 04:22:15;;;;;;;224.88;59.88;;;8.30;99.90;;;;;;5034854;28;20029;-47
2021/11/15 04:24:42;;;;;;;173.10;56.80;;;8.20;99.90;;;;;;5034337;28;20489;-49
2021/11/15 04:27:08;;;;;;;332.10;66.15;;;8.10;99.90;;;;;;5034703;28;20025;-48
2021/11/15 04:29:35;;;;;;;299.20;64.75;;;8.20;99.90;;;;;;5033936;28;20032;-47
2021/11/15 04:32:03;;;;;;;319.20;64.50;;;8.20;99.90;;;;;;5033725;28;20064;-48
2021/11/15 04:34:29;;;;;;;248.27;62.60;;;8.20;99.90;;;;;;4997547;28;20045;-49
2021/11/15 04:36:55;;;;;;;237.93;59.78;;;8.20;99.90;;;;;;4952540;28;20037;-48
2021/11/15 04:39:21;;;;;;;136.65;57.60;;;8.20;99.90;;;;;;5034321;28;20393;-47
2021/11/15 04:41:46;;;;;;;261.05;63.08;;;8.20;99.90;;;;;;4977016;28;20044;-47
2021/11/15 04:44:13;;;;;;;294.52;65.47;;;8.10;99.90;;;;;;5030048;28;20485;-48
2021/11/15 04:46:38;;;;;;;171.63;57.05;;;8.20;99.90;;;;;;5033600;28;20025;-48
2021/11/15 04:49:04;;;;;;;173.05;57.47;;;8.20;99.90;;;;;;5034278;28;20031;-48
2021/11/15 04:51:30;;;;;;;167.00;50.55;;;8.20;99.90;;;;;;5033939;28;20099;-47
2021/11/15 04:53:56;;;;;;;128.57;51.53;;;8.10;99.90;;;;;;5032912;28;20037;-48
2021/11/15 04:56:21;;;;;;;169.65;54.78;;;8.00;99.90;;;;;;5033149;28;20497;-47
2021/11/15 04:58:49;;;;;;;173.90;58.00;;;8.00;99.90;;;;;;4997280;28;20033;-47
2021/11/15 05:01:15;;;;;;;142.27;53.80;;;7.90;99.90;;;;;;5034043;28;20039;-48
2021/11/15 05:03:40;;;;;;;163.85;54.42;;;7.90;99.90;;;;;;4947832;28;20404;-47
2021/11/15 05:06:07;;;;;;;203.25;62.58;;;7.90;99.90;;;;;;5029958;28;20027;-48
2021/11/15 05:08:33;;;;;;;196.18;56.20;;;8.00;99.90;;;;;;5025120;28;20767;-48
2021/11/15 05:10:59;;;;;;;187.77;54.58;;;8.00;99.90;;;;;;5027191;28;20068;-48
2021/11/15 05:13:24;;;;;;;183.25;52.35;;;8.00;99.90;;;;;;5032367;28;20056;-48
2021/11/15 05:15:50;;;;;;;190.25;50.70;;;8.10;99.90;;;;;;4946456;28;20561;-48
2021/11/15 05:18:16;;;;;;;182.40;50.30;;;8.00;99.90;;;;;;5027241;28;20140;-47
2021/11/15 05:20:42;;;;;;;210.75;51.35;;;8.00;99.90;;;;;;4994218;28;20485;-48
2021/11/15 05:23:08;;;;;;;182.35;50.90;;;8.00;99.90;;;;;;5026255;28;20028;-47
2021/11/15 05:25:34;;;;;;;179.80;47.80;;;8.00;99.90;;;;;;5034870;28;20030;-48
2021/11/15 05:28:00;;;;;;;142.73;45.95;;;8.10;99.90;;;;;;5037641;28;20030;-48
2021/11/15 05:30:26;;;;;;;110.93;44.38;;;7.80;99.90;;;;;;5002955;28;20037;-47
2021/11/15 05:32:55;;;;;;;213.93;46.33;;;7.80;99.90;;;;;;5036922;28;20030;-47
2021/11/15 05:35:22;;;;;;;146.55;41.47;;;7.70;99.90;;;;;;5038334;28;20041;-47
2021/11/15 05:37:49;;;;;;;208.48;46.45;;;7.70;99.90;;;;;;4983090;28;20033;-48
2021/11/15 05:40:15;;;;;;;199.40;47.63;;;7.70;99.90;;;;;;5030363;28;20388;-48
2021/11/15 05:42:41;;;;;;;100.10;40.35;;;7.70;99.90;;;;;;4983356;28;20037;-48
2021/11/15 05:45:08;;;;;;;85.50;32.50;;;7.50;99.90;;;;;;5036994;28;20131;-47
2021/11/15 05:47:34;;;;;;;193.88;47.28;;;7.30;99.90;;;;;;5002193;28;20409;-47
2021/11/15 05:50:00;;;;;;;198.93;50.13;;;7.00;99.90;;;;;;4997169;28;20041;-46
2021/11/15 05:52:26;;;;;;;162.80;40.13;;;7.10;99.90;;;;;;5037321;28;20165;-48
2021/11/15 05:54:52;;;;;;;235.85;54.60;;;7.10;99.90;;;;;;5035952;28;20132;-48
2021/11/15 05:57:19;;;;;;;300.73;54.13;;;7.20;99.90;;;;;;5035977;28;20044;-47
2021/11/15 05:59:45;;;;;;;274.73;50.35;;;7.40;99.90;;;;;;5031335;28;20036;-48
2021/11/15 06:02:11;;;;;;;266.38;47.83;;;7.60;99.90;;;;;;4996248;28;20045;-48
2021/11/15 06:04:37;;;;;;;289.17;56.85;;;7.60;99.90;;;;;;4980209;28;20048;-48
2021/11/15 06:07:03;;;;;;;179.05;48.22;;;7.50;99.90;;;;;;5036569;28;20029;-48
2021/11/15 06:09:29;;;;;;;168.88;43.28;;;7.70;99.90;;;;;;5029055;28;20029;-48
2021/11/15 06:11:55;;;;;;;255.05;47.70;;;7.70;99.90;;;;;;5036130;28;20044;-48
2021/11/15 06:14:21;;;;;;;221.13;45.85;;;7.80;99.90;;;;;;5038031;28;20384;-47
2021/11/15 06:16:46;;;;;;;135.88;45.58;;;8.00;99.90;;;;;;5001122;28;20045;-48
2021/11/15 06:19:12;;;;;;;114.25;44.85;;;8.10;99.90;;;;;;4996577;28;20103;-48
2021/11/15 06:21:38;;;;;;;182.38;46.55;;;8.10;99.90;;;;;;4999333;28;20081;-48
2021/11/15 06:24:04;;;;;;;119.88;43.88;;;8.00;99.90;;;;;;5036955;28;20029;-48
2021/11/15 06:26:31;;;;;;;153.30;47.42;;;8.10;99.90;;;;;;5036615;28;20036;-48
2021/11/15 06:28:57;;;;;;;311.40;49.53;;;8.10;99.90;;;;;;5036183;28;20033;-48
2021/11/15 06:31:23;;;;;;;171.18;45.42;;;8.30;99.90;;;;;;5035833;28;20063;-48
2021/11/15 06:33:49;;;;;;;136.40;43.63;;;8.30;99.90;;;;;;5035313;28;20049;-48
2021/11/15 06:36:16;;;;;;;139.73;46.22;;;8.40;99.90;;;;;;4985352;28;20044;-48
2021/11/15 06:38:43;;;;;;;119.07;44.42;;;8.50;99.90;;;;;;4984598;28;20041;-48
2021/11/15 06:41:09;;;;;;;140.90;48.83;;;8.40;99.90;;;;;;5036560;28;20029;-48
2021/11/15 06:43:35;;;;;;;130.40;44.80;;;8.30;99.90;;;;;;5036456;28;20394;-48
2021/11/15 06:46:00;;;;;;;192.90;49.70;;;8.10;99.90;;;;;;5035696;28;20029;-48
2021/11/15 06:48:30;;;;;;;120.50;46.40;;;8.10;99.90;;;;;;4951060;28;20190;-48
2021/11/15 06:50:56;;;;;;;99.43;46.00;;;8.00;99.90;;;;;;5036265;28;20038;-48
2021/11/15 06:53:22;;;;;;;126.57;47.30;;;8.10;99.90;;;;;;4998546;28;20049;-48
2021/11/15 06:55:48;;;;;;;118.70;43.90;;;8.10;99.90;;;;;;4998108;28;20409;-49
2021/11/15 06:58:14;;;;;;;141.93;45.47;;;8.20;99.90;;;;;;4997401;28;20030;-48
2021/11/15 07:00:40;;;;;;;148.38;47.90;;;8.40;99.90;;;;;;5033792;28;20033;-48
2021/11/15 07:03:05;;;;;;;108.97;44.47;;;8.50;99.90;;;;;;5035619;28;20570;-48
2021/11/15 07:05:31;;;;;;;178.93;43.95;;;8.60;99.90;;;;;;4999573;28;20124;-48
2021/11/15 07:07:57;;;;;;;104.72;43.97;;;8.60;99.90;;;;;;5035805;28;20030;-48
2021/11/15 07:10:23;;;;;;;122.53;44.63;;;8.70;99.90;;;;;;4981452;28;20040;-48
2021/11/15 07:12:50;;;;;;;174.98;44.20;;;8.80;99.90;;;;;;5030686;28;20026;-48
2021/11/15 07:15:17;;;;;;;133.88;43.60;;;9.00;99.90;;;;;;4980851;28;20076;-49
2021/11/15 07:17:43;;;;;;;147.57;44.13;;;9.10;99.90;;;;;;5026081;28;20503;-49
2021/11/15 07:20:10;;;;;;;125.90;44.17;;;9.10;99.90;;;;;;4991273;28;20040;-48
2021/11/15 07:22:36;;;;;;;128.30;47.25;;;9.10;99.90;;;;;;5032486;28;20516;-49
2021/11/15 07:25:03;;;;;;;166.00;48.95;;;9.00;99.90;;;;;;5048793;28;20066;-48
2021/11/15 07:27:29;;;;;;;111.13;46.70;;;9.10;99.90;;;;;;4951185;28;20377;-49
2021/11/15 07:29:55;;;;;;;115.85;50.53;;;8.90;99.90;;;;;;5049055;28;20087;-49
2021/11/15 07:32:21;;;;;;;99.35;48.53;;;8.70;99.90;;;;;;4986528;28;20469;-49
2021/11/15 07:34:47;;;;;;;146.60;45.65;;;9.00;99.90;;;;;;5016421;28;20397;-49
2021/11/15 07:37:13;;;;;;;119.68;43.60;;;9.20;99.90;;;;;;4969333;28;20044;-49
2021/11/15 07:39:42;;;;;;;112.03;42.22;;;9.40;99.90;;;;;;4999581;28;20045;-49
2021/11/15 07:42:10;;;;;;;95.63;45.40;;;9.50;99.90;;;;;;5050357;28;20030;-49
2021/11/15 07:44:36;;;;;;;124.32;44.38;;;9.60;99.90;;;;;;5049586;28;20572;-49
2021/11/15 07:47:02;;;;;;;113.97;42.97;;;9.70;99.90;;;;;;5048867;28;20381;-49
2021/11/15 07:49:27;;;;;;;102.97;43.85;;;9.80;99.90;;;;;;5050154;28;20024;-48
2021/11/15 07:51:53;;;;;;;107.80;46.85;;;9.70;99.90;;;;;;5045714;28;20474;-49
2021/11/15 07:54:19;;;;;;;92.50;43.08;;;9.80;99.90;;;;;;5047791;28;20121;-49
2021/11/15 07:56:45;;;;;;;94.70;44.78;;;9.80;99.90;;;;;;5009736;28;20064;-49
2021/11/15 07:59:11;;;;;;;93.28;46.53;;;9.80;99.90;;;;;;4999089;28;20487;-49
2021/11/15 08:01:37;;;;;;;87.68;43.70;;;9.80;99.90;;;;;;5010310;28;20038;-49
2021/11/15 08:04:02;;;;;;;97.28;47.63;;;9.90;99.90;;;;;;5050174;28;20047;-49
2021/11/15 08:06:28;;;;;;;91.03;48.53;;;9.90;99.90;;;;;;5021070;28;20033;-49
2021/11/15 08:08:54;;;;;;;167.57;84.95;;;9.60;99.90;;;;;;4969946;28;20040;-49
2021/11/15 08:11:20;;;;;;;96.05;48.67;;;9.40;99.90;;;;;;4997507;28;20128;-49
2021/11/15 08:13:46;;;;;;;127.03;63.75;;;8.90;99.90;;;;;;5051670;28;20032;-49
2021/11/15 08:16:11;;;;;;;139.05;69.90;;;8.70;99.90;;;;;;5048223;28;20064;-49
2021/11/15 08:18:37;;;;;;;148.75;78.75;;;8.70;99.90;;;;;;5015455;28;20128;-49
2021/11/15 08:21:08;;;;;;;128.35;63.88;;;8.80;99.90;;;;;;4949029;28;20132;-48
2021/11/15 08:23:34;;;;;;;107.57;55.22;;;8.60;99.90;;;;;;5029899;28;20075;-48
2021/11/15 08:26:38;;;;;;;76.03;37.13;;;8.60;99.90;;;;;;5030562;28;20021;-48
2021/11/15 08:29:08;;;;;;;92.85;44.88;;;8.10;99.90;;;;;;5030391;28;20040;-48
2021/11/15 08:31:35;;;;;;;108.10;48.88;;;7.80;99.90;;;;;;5029815;28;20025;-48
2021/11/15 08:34:01;;;;;;;101.80;49.78;;;8.10;99.90;;;;;;5029692;28;20071;-49
2021/11/15 08:36:28;;;;;;;87.25;45.20;;;8.50;99.90;;;;;;4980452;28;20120;-48
2021/11/15 08:39:00;;;;;;;82.82;41.78;;;8.80;99.90;;;;;;5030407;28;20094;-48
2021/11/15 08:41:32;;;;;;;69.75;35.83;;;8.40;99.90;;;;;;4980516;28;20042;-48
2021/11/15 08:44:01;;;;;;;73.85;42.03;;;7.90;99.90;;;;;;5026249;28;20045;-48
2021/11/15 08:46:29;;;;;;;73.55;41.00;;;8.00;99.90;;;;;;4972078;28;20479;-48
2021/11/15 08:48:56;;;;;;;72.13;39.35;;;8.10;99.90;;;;;;4957090;28;20050;-50
2021/11/15 08:51:24;;;;;;;71.20;40.20;;;8.40;99.90;;;;;;4990287;28;20073;-48
2021/11/15 08:53:51;;;;;;;65.85;37.67;;;8.40;99.90;;;;;;4973977;28;20046;-48
2021/11/15 08:56:18;;;;;;;74.40;41.35;;;8.80;99.90;;;;;;4986697;28;20376;-48
2021/11/15 08:58:45;;;;;;;69.65;39.00;;;9.00;99.90;;;;;;4989530;28;20038;-49
2021/11/15 09:01:11;;;;;;;68.82;38.45;;;9.10;99.90;;;;;;4988664;28;20046;-49
2021/11/15 09:03:39;;;;;;;71.25;40.03;;;9.00;99.90;;;;;;4987355;28;20034;-48
2021/11/15 09:06:07;;;;;;;71.68;39.40;;;9.10;99.90;;;;;;4989152;28;20112;-48
2021/11/15 09:08:34;;;;;;;68.10;38.20;;;9.10;99.90;;;;;;4989446;28;20162;-48
2021/11/15 09:10:59;;;;;;;74.55;42.70;;;9.20;99.90;;;;;;4990484;28;20038;-48
2021/11/15 09:13:25;;;;;;;77.97;43.30;;;9.40;99.90;;;;;;4953887;28;20038;-49
2021/11/15 09:15:51;;;;;;;68.50;36.83;;;9.30;99.90;;;;;;4970103;28;20065;-46
2021/11/15 09:18:17;;;;;;;72.97;39.40;;;9.70;99.90;;;;;;4998735;28;20042;-48
2021/11/15 09:20:43;;;;;;;70.30;39.80;;;9.70;99.90;;;;;;5038487;28;20052;-47
2021/11/15 09:23:09;;;;;;;71.65;41.53;;;10.00;99.90;;;;;;5045423;28;20646;-50
2021/11/15 09:25:35;;;;;;;76.75;43.42;;;10.20;99.90;;;;;;5049779;28;20036;-49
2021/11/15 09:28:02;;;;;;;72.57;39.58;;;10.20;99.90;;;;;;5009216;28;20043;-49
2021/11/15 09:30:28;;;;;;;67.85;38.72;;;9.80;99.90;;;;;;5005480;28;20371;-49
2021/11/15 09:32:54;;;;;;;77.65;45.03;;;9.70;99.90;;;;;;4973352;28;20475;-49
2021/11/15 09:35:20;;;;;;;79.43;46.30;;;10.10;99.90;;;;;;5002658;28;20060;-50
2021/11/15 09:37:46;;;;;;;69.95;41.38;;;10.30;99.90;;;;;;5008063;28;20050;-49
2021/11/15 09:40:13;;;;;;;71.55;41.05;;;9.90;99.90;;;;;;5004743;28;20088;-50
2021/11/15 09:42:40;;;;;;;78.45;43.03;;;10.00;99.90;;;;;;5008540;28;20041;-47
2021/11/15 09:45:07;;;;;;;73.63;41.92;;;10.20;99.90;;;;;;5006369;28;20041;-49
2021/11/15 09:47:39;;;;;;;76.75;40.80;;;10.50;99.90;;;;;;5004950;28;20066;-51
2021/11/15 09:50:07;;;;;;;98.20;58.90;;;10.00;99.90;;;;;;5004203;28;20497;-49
2021/11/15 09:52:34;;;;;;;72.13;43.65;;;10.40;99.90;;;;;;5007176;28;20112;-51
2021/11/15 09:55:03;;;;;;;65.53;36.63;;;10.60;99.90;;;;;;4955511;28;20046;-46
2021/11/15 09:57:30;;;;;;;65.95;36.55;;;10.40;99.90;;;;;;4981540;28;20500;-48
2021/11/15 09:59:56;;;;;;;79.10;42.95;;;10.00;99.90;;;;;;4988503;28;20076;-48
2021/11/15 10:02:22;;;;;;;72.93;41.75;;;10.30;99.90;;;;;;5006340;28;20069;-50
2021/11/15 10:04:48;;;;;;;72.38;41.95;;;10.50;99.90;;;;;;4997599;28;20033;-51
2021/11/15 10:07:14;;;;;;;69.78;41.75;;;10.60;99.90;;;;;;5006764;28;20042;-51
2021/11/15 10:09:42;;;;;;;66.38;37.83;;;10.50;99.90;;;;;;5011580;28;20125;-51
2021/11/15 10:12:12;;;;;;;66.22;38.17;;;10.30;99.90;;;;;;4964402;28;20041;-50
2021/11/15 10:15:05;;;;;;;71.90;39.10;;;10.40;99.90;;;;;;5007161;28;20501;-51
2021/11/15 10:17:45;;;;;;;74.63;39.92;;;10.40;99.90;;;;;;5008831;28;20727;-51
2021/11/15 10:20:11;;;;;;;71.72;40.22;;;10.60;99.90;;;;;;5009394;28;20037;-51
2021/11/15 10:22:39;;;;;;;75.95;42.80;;;10.70;99.90;;;;;;5010471;28;20030;-52
2021/11/15 10:25:06;;;;;;;74.68;40.50;;;10.80;99.90;;;;;;5010010;28;20048;-53
2021/11/15 10:27:32;;;;;;;73.50;37.53;;;10.40;99.90;;;;;;5011080;28;20529;-54
2021/11/15 10:29:58;;;;;;;81.57;43.17;;;9.80;99.90;;;;;;5011551;28;20025;-52
2021/11/15 10:32:29;;;;;;;69.53;37.15;;;9.90;99.90;;;;;;5029001;28;20060;-52
2021/11/15 10:35:00;;;;;;;76.80;41.42;;;9.90;99.90;;;;;;5052082;28;20142;-55
2021/11/15 10:37:31;;;;;;;68.95;40.03;;;10.10;99.90;;;;;;5052829;28;20578;-53
2021/11/15 10:40:06;;;;;;;66.43;36.70;;;10.20;99.90;;;;;;5019330;28;20056;-52
2021/11/15 10:42:34;;;;;;;75.28;42.97;;;10.10;99.90;;;;;;5039129;28;20021;-51
2021/11/15 10:45:15;;;;;;;77.70;39.40;;;10.40;99.90;;;;;;5018688;28;20029;-53
2021/11/15 10:47:54;;;;;;;72.90;42.97;;;10.40;99.90;;;;;;5044218;28;20481;-53
2021/11/15 10:50:56;;;;;;;76.63;40.97;;;10.40;99.90;;;;;;5053161;28;20087;-53
2021/11/15 10:53:57;;;;;;;75.00;42.15;;;10.60;99.90;;;;;;5052385;28;20056;-54
2021/11/15 10:56:35;;;;;;;74.40;41.58;;;11.10;99.90;;;;;;5046576;28;20037;-52
2021/11/15 10:59:11;;;;;;;68.40;39.90;;;11.20;99.90;;;;;;5052057;28;20119;-52
2021/11/15 11:01:39;;;;;;;83.10;44.78;;;10.60;99.90;;;;;;5044013;28;20028;-53
2021/11/15 11:04:16;;;;;;;63.42;37.92;;;10.50;99.90;;;;;;5015096;28;20374;-51
2021/11/15 11:06:56;;;;;;;70.90;39.75;;;10.80;99.90;;;;;;5052232;28;20610;-54
2021/11/15 11:09:40;;;;;;;68.03;39.83;;;10.70;99.90;;;;;;5012637;28;20393;-53
2021/11/15 11:12:13;;;;;;;62.00;37.08;;;11.30;99.90;;;;;;5039821;28;20108;-53
2021/11/15 11:14:40;;;;;;;66.38;39.72;;;11.70;99.90;;;;;;5016565;28;20052;-53
2021/11/15 11:17:07;;;;;;;65.07;38.97;;;12.00;99.90;;;;;;5045446;28;20044;-51
2021/11/15 11:19:58;;;;;;;73.72;40.08;;;12.10;99.90;;;;;;5047512;28;20150;-53
2021/11/15 11:22:38;;;;;;;63.25;37.60;;;12.00;99.90;;;;;;4992353;28;20049;-51
2021/11/15 11:27:31;;;;;;;67.63;38.65;;;12.10;99.90;;;;;;5023264;28;20021;-50
2021/11/15 11:29:58;;;;;;;64.32;40.88;;;12.10;99.90;;;;;;4962816;28;20052;-53
2021/11/15 11:32:26;;;;;;;74.43;45.83;;;12.70;99.90;;;;;;4999491;28;20026;-52
2021/11/15 11:34:56;;;;;;;58.13;35.60;;;13.20;99.90;;;;;;5027601;28;20168;-51
2021/11/15 11:37:28;;;;;;;59.35;37.55;;;13.10;99.90;;;;;;5031668;28;20056;-52
2021/11/15 11:39:57;;;;;;;60.33;36.55;;;13.20;99.90;;;;;;5031968;28;20033;-52
2021/11/15 11:42:23;;;;;;;74.30;44.63;;;13.20;99.90;;;;;;5032259;28;20026;-51
2021/11/15 11:44:52;;;;;;;63.60;38.70;;;13.20;99.90;;;;;;5012856;28;20041;-51
2021/11/15 11:47:20;;;;;;;64.10;40.35;;;13.10;99.90;;;;;;5031290;28;20507;-51
2021/11/15 11:49:47;;;;;;;79.38;51.00;;;13.10;99.90;;;;;;5031891;28;20163;-51
2021/11/15 11:52:17;;;;;;;76.38;44.55;;;13.00;99.90;;;;;;5031236;28;20044;-52
2021/11/15 11:54:47;;;;;;;72.10;41.80;;;12.80;99.90;;;;;;5031226;28;20072;-51
2021/11/15 11:57:19;;;;;;;75.55;43.17;;;12.40;99.90;;;;;;4997290;28;20050;-52
2021/11/15 11:59:44;;;;;;;65.05;41.20;;;12.40;99.90;;;;;;5014774;28;20033;-52
2021/11/15 12:02:17;;;;;;;69.38;43.60;;;12.40;99.90;;;;;;5029321;28;20646;-51
2021/11/15 12:04:54;;;;;;;87.43;44.55;;;12.60;99.90;;;;;;5031623;28;20454;-51
2021/11/15 12:07:33;;;;;;;69.53;42.20;;;12.60;99.90;;;;;;5031764;28;20038;-50
2021/11/15 12:10:14;;;;;;;149.88;79.78;;;12.60;99.90;;;;;;5027782;28;20485;-51
2021/11/15 12:12:51;;;;;;;350.30;158.30;;;12.80;99.90;;;;;;5027110;28;20386;-51
2021/11/15 12:15:33;;;;;;;636.72;340.08;;;12.50;99.90;;;;;;4995892;28;20045;-51
2021/11/15 12:18:14;;;;;;;95.43;54.65;;;12.60;99.90;;;;;;5030879;28;20036;-51
2021/11/15 12:20:59;;;;;;;156.18;77.25;;;12.80;99.90;;;;;;5044367;28;20045;-51
2021/11/15 12:23:26;;;;;;;99.55;58.53;;;13.00;99.90;;;;;;5048134;28;20374;-51
2021/11/15 12:26:03;;;;;;;84.05;52.45;;;13.00;99.90;;;;;;5051072;28;20041;-52
2021/11/15 12:28:33;;;;;;;79.25;48.97;;;13.20;99.90;;;;;;5051032;28;20033;-52
2021/11/15 12:31:00;;;;;;;112.43;59.97;;;13.70;99.90;;;;;;5040593;28;20041;-51
2021/11/15 12:33:33;;;;;;;86.20;49.80;;;14.00;99.90;;;;;;4993397;28;20057;-51